sensor_id;sensor_type;location;lat;lon;timestamp;P1;durP1;ratioP1;P2;durP2;ratioP2
11348;SDS011;5729;43.570;27.826;2022-08-01T00:01:47;9.30;;;6.45;;
11348;SDS011;5729;43.570;27.826;2022-08-01T00:04:12;5.78;;;5.28;;
11348;SDS011;5729;43.570;27.826;2022-08-01T00:06:38;9.75;;;5.38;;
11348;SDS011;5729;43.570;27.826;2022-08-01T00:09:03;7.30;;;5.72;;
11348;SDS011;5729;43.570;27.826;2022-08-01T00:11:29;9.63;;;5.80;;
11348;SDS011;5729;43.570;27.826;2022-08-01T00:13:54;6.32;;;5.68;;
11348;SDS011;5729;43.570;27.826;2022-08-01T00:16:20;6.30;;;5.70;;
11348;SDS011;5729;43.570;27.826;2022-08-01T00:18:47;10.20;;;5.47;;
11348;SDS011;5729;43.570;27.826;2022-08-01T00:21:14;6.72;;;6.10;;
11348;SDS011;5729;43.570;27.826;2022-08-01T00:23:40;16.15;;;5.90;;
11348;SDS011;5729;43.570;27.826;2022-08-01T00:26:06;10.23;;;4.97;;
11348;SDS011;5729;43.570;27.826;2022-08-01T00:28:31;9.75;;;5.35;;
11348;SDS011;5729;43.570;27.826;2022-08-01T00:30:57;9.55;;;5.85;;
11348;SDS011;5729;43.570;27.826;2022-08-01T00:33:22;6.38;;;4.90;;
11348;SDS011;5729;43.570;27.826;2022-08-01T00:35:48;6.10;;;5.50;;
11348;SDS011;5729;43.570;27.826;2022-08-01T00:38:13;5.88;;;5.22;;
11348;SDS011;5729;43.570;27.826;2022-08-01T00:40:39;9.63;;;4.95;;
11348;SDS011;5729;43.570;27.826;2022-08-01T00:43:04;8.02;;;5.15;;
11348;SDS011;5729;43.570;27.826;2022-08-01T00:45:30;6.60;;;4.88;;
11348;SDS011;5729;43.570;27.826;2022-08-01T00:47:55;6.97;;;4.93;;
11348;SDS011;5729;43.570;27.826;2022-08-01T00:50:21;6.05;;;4.75;;
11348;SDS011;5729;43.570;27.826;2022-08-01T00:52:47;7.05;;;5.05;;
11348;SDS011;5729;43.570;27.826;2022-08-01T00:55:13;6.40;;;4.85;;
11348;SDS011;5729;43.570;27.826;2022-08-01T00:57:40;5.45;;;4.93;;
11348;SDS011;5729;43.570;27.826;2022-08-01T01:00:06;4.78;;;4.38;;
11348;SDS011;5729;43.570;27.826;2022-08-01T01:02:33;4.35;;;3.95;;
11348;SDS011;5729;43.570;27.826;2022-08-01T01:04:59;5.38;;;4.20;;
11348;SDS011;5729;43.570;27.826;2022-08-01T01:10:25;6.82;;;4.20;;
11348;SDS011;5729;43.570;27.826;2022-08-01T01:13:09;5.03;;;4.50;;
11348;SDS011;5729;43.570;27.826;2022-08-01T01:15:41;5.45;;;4.10;;
11348;SDS011;5729;43.570;27.826;2022-08-01T01:18:12;6.93;;;3.85;;
11348;SDS011;5729;43.570;27.826;2022-08-01T01:20:43;4.70;;;4.30;;
11348;SDS011;5729;43.570;27.826;2022-08-01T01:31:29;5.55;;;4.30;;
11348;SDS011;5729;43.570;27.826;2022-08-01T01:33:58;5.53;;;4.22;;
11348;SDS011;5729;43.570;27.826;2022-08-01T01:36:26;5.38;;;3.83;;
11348;SDS011;5729;43.570;27.826;2022-08-01T01:38:53;6.20;;;4.32;;
11348;SDS011;5729;43.570;27.826;2022-08-01T01:41:20;7.03;;;4.00;;
11348;SDS011;5729;43.570;27.826;2022-08-01T01:43:47;3.72;;;3.35;;
11348;SDS011;5729;43.570;27.826;2022-08-01T01:46:15;5.15;;;3.35;;
11348;SDS011;5729;43.570;27.826;2022-08-01T01:48:44;5.20;;;3.60;;
11348;SDS011;5729;43.570;27.826;2022-08-01T01:51:11;4.82;;;3.08;;
11348;SDS011;5729;43.570;27.826;2022-08-01T01:53:39;4.70;;;3.40;;
11348;SDS011;5729;43.570;27.826;2022-08-01T01:56:05;4.22;;;3.40;;
11348;SDS011;5729;43.570;27.826;2022-08-01T01:58:33;4.60;;;2.95;;
11348;SDS011;5729;43.570;27.826;2022-08-01T02:00:59;5.18;;;3.33;;
11348;SDS011;5729;43.570;27.826;2022-08-01T02:03:27;7.38;;;3.35;;
11348;SDS011;5729;43.570;27.826;2022-08-01T02:05:53;5.95;;;3.28;;
11348;SDS011;5729;43.570;27.826;2022-08-01T02:08:20;4.45;;;3.33;;
11348;SDS011;5729;43.570;27.826;2022-08-01T02:10:48;5.38;;;2.90;;
11348;SDS011;5729;43.570;27.826;2022-08-01T02:13:36;5.68;;;3.00;;
11348;SDS011;5729;43.570;27.826;2022-08-01T02:16:05;3.25;;;2.90;;
11348;SDS011;5729;43.570;27.826;2022-08-01T02:18:32;8.38;;;3.83;;
11348;SDS011;5729;43.570;27.826;2022-08-01T02:20:58;3.35;;;3.05;;
11348;SDS011;5729;43.570;27.826;2022-08-01T02:23:31;4.20;;;3.28;;
11348;SDS011;5729;43.570;27.826;2022-08-01T02:25:58;3.58;;;3.28;;
11348;SDS011;5729;43.570;27.826;2022-08-01T02:28:35;7.32;;;3.08;;
11348;SDS011;5729;43.570;27.826;2022-08-01T02:31:07;4.75;;;3.20;;
11348;SDS011;5729;43.570;27.826;2022-08-01T02:33:40;5.40;;;2.60;;
11348;SDS011;5729;43.570;27.826;2022-08-01T02:36:10;7.07;;;2.75;;
11348;SDS011;5729;43.570;27.826;2022-08-01T02:38:39;5.68;;;2.83;;
11348;SDS011;5729;43.570;27.826;2022-08-01T02:41:07;6.40;;;2.80;;
11348;SDS011;5729;43.570;27.826;2022-08-01T02:43:38;4.55;;;2.75;;
11348;SDS011;5729;43.570;27.826;2022-08-01T02:46:08;5.70;;;3.08;;
11348;SDS011;5729;43.570;27.826;2022-08-01T02:48:37;5.15;;;2.92;;
11348;SDS011;5729;43.570;27.826;2022-08-01T02:51:05;2.70;;;2.50;;
11348;SDS011;5729;43.570;27.826;2022-08-01T02:53:32;3.22;;;2.58;;
11348;SDS011;5729;43.570;27.826;2022-08-01T02:56:03;3.10;;;2.70;;
11348;SDS011;5729;43.570;27.826;2022-08-01T02:58:30;7.65;;;2.70;;
11348;SDS011;5729;43.570;27.826;2022-08-01T03:00:58;3.13;;;2.80;;
11348;SDS011;5729;43.570;27.826;2022-08-01T03:03:24;5.05;;;2.35;;
11348;SDS011;5729;43.570;27.826;2022-08-01T03:05:50;2.88;;;2.42;;
11348;SDS011;5729;43.570;27.826;2022-08-01T03:08:16;2.42;;;2.20;;
11348;SDS011;5729;43.570;27.826;2022-08-01T03:10:44;2.83;;;2.33;;
11348;SDS011;5729;43.570;27.826;2022-08-01T03:13:11;2.20;;;2.03;;
11348;SDS011;5729;43.570;27.826;2022-08-01T03:15:39;2.90;;;2.17;;
11348;SDS011;5729;43.570;27.826;2022-08-01T03:18:09;2.30;;;2.10;;
11348;SDS011;5729;43.570;27.826;2022-08-01T03:20:36;3.38;;;2.17;;
11348;SDS011;5729;43.570;27.826;2022-08-01T03:23:03;3.53;;;2.30;;
11348;SDS011;5729;43.570;27.826;2022-08-01T03:25:31;5.55;;;2.80;;
11348;SDS011;5729;43.570;27.826;2022-08-01T03:27:59;4.07;;;2.75;;
11348;SDS011;5729;43.570;27.826;2022-08-01T03:30:28;4.80;;;2.60;;
11348;SDS011;5729;43.570;27.826;2022-08-01T03:32:56;2.63;;;2.42;;
11348;SDS011;5729;43.570;27.826;2022-08-01T03:35:23;7.80;;;2.80;;
11348;SDS011;5729;43.570;27.826;2022-08-01T03:37:55;4.68;;;2.70;;
11348;SDS011;5729;43.570;27.826;2022-08-01T03:43:14;3.30;;;2.20;;
11348;SDS011;5729;43.570;27.826;2022-08-01T03:45:49;3.88;;;2.50;;
11348;SDS011;5729;43.570;27.826;2022-08-01T03:48:16;3.60;;;2.70;;
11348;SDS011;5729;43.570;27.826;2022-08-01T03:50:46;2.33;;;1.95;;
11348;SDS011;5729;43.570;27.826;2022-08-01T03:53:13;2.55;;;2.35;;
11348;SDS011;5729;43.570;27.826;2022-08-01T03:55:41;3.53;;;2.13;;
11348;SDS011;5729;43.570;27.826;2022-08-01T03:58:09;3.72;;;2.15;;
11348;SDS011;5729;43.570;27.826;2022-08-01T04:00:36;2.45;;;1.80;;
11348;SDS011;5729;43.570;27.826;2022-08-01T04:03:04;4.95;;;2.10;;
11348;SDS011;5729;43.570;27.826;2022-08-01T04:05:30;3.10;;;2.10;;
11348;SDS011;5729;43.570;27.826;2022-08-01T04:07:56;5.32;;;2.67;;
11348;SDS011;5729;43.570;27.826;2022-08-01T04:10:22;3.30;;;2.25;;
11348;SDS011;5729;43.570;27.826;2022-08-01T04:12:49;3.75;;;2.17;;
11348;SDS011;5729;43.570;27.826;2022-08-01T04:15:15;2.90;;;2.60;;
11348;SDS011;5729;43.570;27.826;2022-08-01T04:17:41;5.70;;;2.22;;
11348;SDS011;5729;43.570;27.826;2022-08-01T04:20:06;2.28;;;2.03;;
11348;SDS011;5729;43.570;27.826;2022-08-01T04:22:33;4.78;;;2.47;;
11348;SDS011;5729;43.570;27.826;2022-08-01T04:24:59;3.30;;;2.45;;
11348;SDS011;5729;43.570;27.826;2022-08-01T04:27:32;4.88;;;2.15;;
11348;SDS011;5729;43.570;27.826;2022-08-01T04:30:02;5.78;;;2.20;;
11348;SDS011;5729;43.570;27.826;2022-08-01T04:32:29;2.28;;;1.90;;
11348;SDS011;5729;43.570;27.826;2022-08-01T04:35:00;4.72;;;2.20;;
11348;SDS011;5729;43.570;27.826;2022-08-01T04:37:32;4.07;;;2.00;;
11348;SDS011;5729;43.570;27.826;2022-08-01T04:40:03;6.20;;;2.03;;
11348;SDS011;5729;43.570;27.826;2022-08-01T04:42:31;6.63;;;2.15;;
11348;SDS011;5729;43.570;27.826;2022-08-01T04:44:59;6.22;;;2.03;;
11348;SDS011;5729;43.570;27.826;2022-08-01T04:47:25;2.80;;;1.80;;
11348;SDS011;5729;43.570;27.826;2022-08-01T04:49:52;2.15;;;1.88;;
11348;SDS011;5729;43.570;27.826;2022-08-01T04:52:18;3.35;;;2.08;;
11348;SDS011;5729;43.570;27.826;2022-08-01T04:54:45;4.60;;;1.90;;
11348;SDS011;5729;43.570;27.826;2022-08-01T04:57:11;3.03;;;1.85;;
11348;SDS011;5729;43.570;27.826;2022-08-01T04:59:38;2.85;;;2.05;;
11348;SDS011;5729;43.570;27.826;2022-08-01T05:02:08;3.75;;;2.15;;
11348;SDS011;5729;43.570;27.826;2022-08-01T05:04:37;5.78;;;1.90;;
11348;SDS011;5729;43.570;27.826;2022-08-01T05:07:04;6.22;;;2.30;;
11348;SDS011;5729;43.570;27.826;2022-08-01T05:09:30;6.97;;;2.20;;
11348;SDS011;5729;43.570;27.826;2022-08-01T05:11:56;6.15;;;2.25;;
11348;SDS011;5729;43.570;27.826;2022-08-01T05:14:26;2.10;;;1.90;;
11348;SDS011;5729;43.570;27.826;2022-08-01T05:16:52;3.55;;;1.92;;
11348;SDS011;5729;43.570;27.826;2022-08-01T05:19:18;4.90;;;2.08;;
11348;SDS011;5729;43.570;27.826;2022-08-01T05:21:44;4.13;;;1.80;;
11348;SDS011;5729;43.570;27.826;2022-08-01T05:24:10;6.60;;;1.95;;
11348;SDS011;5729;43.570;27.826;2022-08-01T05:26:35;10.13;;;2.55;;
11348;SDS011;5729;43.570;27.826;2022-08-01T05:29:01;5.78;;;1.70;;
11348;SDS011;5729;43.570;27.826;2022-08-01T05:31:27;4.00;;;1.75;;
11348;SDS011;5729;43.570;27.826;2022-08-01T05:33:53;2.47;;;1.85;;
11348;SDS011;5729;43.570;27.826;2022-08-01T05:36:18;5.97;;;2.05;;
11348;SDS011;5729;43.570;27.826;2022-08-01T05:38:44;2.75;;;2.03;;
11348;SDS011;5729;43.570;27.826;2022-08-01T05:41:10;7.60;;;1.90;;
11348;SDS011;5729;43.570;27.826;2022-08-01T05:43:35;4.32;;;2.17;;
11348;SDS011;5729;43.570;27.826;2022-08-01T05:46:01;4.22;;;1.88;;
11348;SDS011;5729;43.570;27.826;2022-08-01T05:48:27;3.15;;;2.22;;
11348;SDS011;5729;43.570;27.826;2022-08-01T05:50:53;3.17;;;2.03;;
11348;SDS011;5729;43.570;27.826;2022-08-01T05:53:19;14.48;;;2.05;;
11348;SDS011;5729;43.570;27.826;2022-08-01T05:55:45;3.70;;;2.15;;
11348;SDS011;5729;43.570;27.826;2022-08-01T05:58:10;7.65;;;2.72;;
11348;SDS011;5729;43.570;27.826;2022-08-01T06:00:36;3.95;;;2.38;;
11348;SDS011;5729;43.570;27.826;2022-08-01T06:03:02;7.75;;;2.30;;
11348;SDS011;5729;43.570;27.826;2022-08-01T06:05:27;4.65;;;1.85;;
11348;SDS011;5729;43.570;27.826;2022-08-01T06:07:53;8.20;;;2.45;;
11348;SDS011;5729;43.570;27.826;2022-08-01T06:10:18;3.50;;;1.95;;
11348;SDS011;5729;43.570;27.826;2022-08-01T06:12:44;5.63;;;1.85;;
11348;SDS011;5729;43.570;27.826;2022-08-01T06:15:10;2.22;;;2.03;;
11348;SDS011;5729;43.570;27.826;2022-08-01T06:17:36;7.18;;;2.03;;
11348;SDS011;5729;43.570;27.826;2022-08-01T06:20:02;2.83;;;1.85;;
11348;SDS011;5729;43.570;27.826;2022-08-01T06:22:28;5.22;;;2.95;;
11348;SDS011;5729;43.570;27.826;2022-08-01T06:24:54;10.00;;;4.60;;
11348;SDS011;5729;43.570;27.826;2022-08-01T06:27:19;3.85;;;2.35;;
11348;SDS011;5729;43.570;27.826;2022-08-01T06:29:45;2.55;;;1.90;;
11348;SDS011;5729;43.570;27.826;2022-08-01T06:32:10;5.32;;;1.90;;
11348;SDS011;5729;43.570;27.826;2022-08-01T06:34:36;4.38;;;1.98;;
11348;SDS011;5729;43.570;27.826;2022-08-01T06:37:01;9.05;;;2.28;;
11348;SDS011;5729;43.570;27.826;2022-08-01T06:39:27;7.30;;;1.73;;
11348;SDS011;5729;43.570;27.826;2022-08-01T06:41:52;6.18;;;2.00;;
11348;SDS011;5729;43.570;27.826;2022-08-01T06:44:18;5.72;;;2.25;;
11348;SDS011;5729;43.570;27.826;2022-08-01T06:46:43;1.60;;;1.50;;
11348;SDS011;5729;43.570;27.826;2022-08-01T06:49:09;6.55;;;2.30;;
11348;SDS011;5729;43.570;27.826;2022-08-01T06:51:34;5.38;;;2.00;;
11348;SDS011;5729;43.570;27.826;2022-08-01T06:53:59;3.85;;;2.10;;
11348;SDS011;5729;43.570;27.826;2022-08-01T06:56:25;2.85;;;2.20;;
11348;SDS011;5729;43.570;27.826;2022-08-01T06:58:50;4.30;;;1.75;;
11348;SDS011;5729;43.570;27.826;2022-08-01T07:01:16;5.55;;;2.05;;
11348;SDS011;5729;43.570;27.826;2022-08-01T07:03:41;7.25;;;1.90;;
11348;SDS011;5729;43.570;27.826;2022-08-01T07:06:07;2.83;;;1.48;;
11348;SDS011;5729;43.570;27.826;2022-08-01T07:08:33;2.95;;;2.05;;
11348;SDS011;5729;43.570;27.826;2022-08-01T07:10:58;5.32;;;2.33;;
11348;SDS011;5729;43.570;27.826;2022-08-01T07:13:27;6.63;;;2.05;;
11348;SDS011;5729;43.570;27.826;2022-08-01T07:16:12;1.92;;;1.63;;
11348;SDS011;5729;43.570;27.826;2022-08-01T07:19:15;10.25;;;1.90;;
11348;SDS011;5729;43.570;27.826;2022-08-01T07:21:41;5.30;;;2.20;;
11348;SDS011;5729;43.570;27.826;2022-08-01T07:24:10;3.55;;;1.67;;
11348;SDS011;5729;43.570;27.826;2022-08-01T07:26:38;3.83;;;2.13;;
11348;SDS011;5729;43.570;27.826;2022-08-01T07:29:04;9.48;;;2.20;;
11348;SDS011;5729;43.570;27.826;2022-08-01T07:31:30;5.28;;;1.80;;
11348;SDS011;5729;43.570;27.826;2022-08-01T07:33:55;3.67;;;1.48;;
11348;SDS011;5729;43.570;27.826;2022-08-01T07:36:21;3.53;;;1.55;;
11348;SDS011;5729;43.570;27.826;2022-08-01T07:38:46;2.22;;;1.33;;
11348;SDS011;5729;43.570;27.826;2022-08-01T07:41:12;5.85;;;1.83;;
11348;SDS011;5729;43.570;27.826;2022-08-01T07:43:38;2.47;;;1.40;;
11348;SDS011;5729;43.570;27.826;2022-08-01T07:46:03;6.82;;;1.88;;
11348;SDS011;5729;43.570;27.826;2022-08-01T07:48:30;4.18;;;1.77;;
11348;SDS011;5729;43.570;27.826;2022-08-01T07:50:55;10.88;;;2.67;;
11348;SDS011;5729;43.570;27.826;2022-08-01T07:53:21;2.53;;;1.35;;
11348;SDS011;5729;43.570;27.826;2022-08-01T07:55:46;7.03;;;1.73;;
11348;SDS011;5729;43.570;27.826;2022-08-01T07:58:13;6.78;;;1.70;;
11348;SDS011;5729;43.570;27.826;2022-08-01T08:00:38;2.53;;;1.50;;
11348;SDS011;5729;43.570;27.826;2022-08-01T08:03:04;6.20;;;2.30;;
11348;SDS011;5729;43.570;27.826;2022-08-01T08:05:29;3.42;;;1.25;;
11348;SDS011;5729;43.570;27.826;2022-08-01T08:07:56;1.65;;;1.50;;
11348;SDS011;5729;43.570;27.826;2022-08-01T08:10:21;1.58;;;1.38;;
11348;SDS011;5729;43.570;27.826;2022-08-01T08:12:47;4.05;;;1.60;;
11348;SDS011;5729;43.570;27.826;2022-08-01T08:15:13;3.80;;;1.83;;
11348;SDS011;5729;43.570;27.826;2022-08-01T08:17:39;6.00;;;1.50;;
11348;SDS011;5729;43.570;27.826;2022-08-01T08:20:05;2.53;;;1.48;;
11348;SDS011;5729;43.570;27.826;2022-08-01T08:22:31;5.75;;;3.35;;
11348;SDS011;5729;43.570;27.826;2022-08-01T08:24:57;4.35;;;2.85;;
11348;SDS011;5729;43.570;27.826;2022-08-01T08:27:22;5.25;;;2.50;;
11348;SDS011;5729;43.570;27.826;2022-08-01T08:29:48;2.35;;;1.63;;
11348;SDS011;5729;43.570;27.826;2022-08-01T08:32:13;1.95;;;1.55;;
11348;SDS011;5729;43.570;27.826;2022-08-01T08:34:39;7.88;;;1.60;;
11348;SDS011;5729;43.570;27.826;2022-08-01T08:37:05;3.97;;;1.50;;
11348;SDS011;5729;43.570;27.826;2022-08-01T08:39:30;5.78;;;1.83;;
11348;SDS011;5729;43.570;27.826;2022-08-01T08:41:58;1.40;;;1.30;;
11348;SDS011;5729;43.570;27.826;2022-08-01T08:44:24;7.25;;;1.77;;
11348;SDS011;5729;43.570;27.826;2022-08-01T08:46:51;6.47;;;1.88;;
11348;SDS011;5729;43.570;27.826;2022-08-01T08:49:18;4.15;;;1.60;;
11348;SDS011;5729;43.570;27.826;2022-08-01T08:51:47;2.50;;;1.60;;
11348;SDS011;5729;43.570;27.826;2022-08-01T08:54:14;4.82;;;1.77;;
11348;SDS011;5729;43.570;27.826;2022-08-01T08:56:41;3.00;;;1.63;;
11348;SDS011;5729;43.570;27.826;2022-08-01T08:59:10;3.05;;;1.80;;
11348;SDS011;5729;43.570;27.826;2022-08-01T09:01:38;2.75;;;1.45;;
11348;SDS011;5729;43.570;27.826;2022-08-01T09:04:04;3.67;;;1.50;;
11348;SDS011;5729;43.570;27.826;2022-08-01T09:06:31;4.75;;;1.45;;
11348;SDS011;5729;43.570;27.826;2022-08-01T09:08:57;2.10;;;1.50;;
11348;SDS011;5729;43.570;27.826;2022-08-01T09:11:23;4.43;;;1.30;;
11348;SDS011;5729;43.570;27.826;2022-08-01T09:16:42;3.15;;;1.30;;
11348;SDS011;5729;43.570;27.826;2022-08-01T09:19:12;2.30;;;1.33;;
11348;SDS011;5729;43.570;27.826;2022-08-01T09:21:40;3.17;;;1.58;;
11348;SDS011;5729;43.570;27.826;2022-08-01T09:24:24;2.55;;;1.58;;
11348;SDS011;5729;43.570;27.826;2022-08-01T09:26:51;3.97;;;1.40;;
11348;SDS011;5729;43.570;27.826;2022-08-01T09:29:19;6.57;;;1.73;;
11348;SDS011;5729;43.570;27.826;2022-08-01T09:31:47;2.42;;;1.50;;
11348;SDS011;5729;43.570;27.826;2022-08-01T09:34:14;6.70;;;1.70;;
11348;SDS011;5729;43.570;27.826;2022-08-01T09:39:19;2.63;;;1.15;;
11348;SDS011;5729;43.570;27.826;2022-08-01T09:41:46;2.65;;;1.42;;
11348;SDS011;5729;43.570;27.826;2022-08-01T09:44:13;4.55;;;1.70;;
11348;SDS011;5729;43.570;27.826;2022-08-01T09:46:49;4.88;;;1.40;;
11348;SDS011;5729;43.570;27.826;2022-08-01T09:49:32;4.72;;;1.70;;
11348;SDS011;5729;43.570;27.826;2022-08-01T09:52:17;3.78;;;1.52;;
11348;SDS011;5729;43.570;27.826;2022-08-01T09:55:20;1.73;;;1.40;;
11348;SDS011;5729;43.570;27.826;2022-08-01T09:57:36;4.13;;;1.40;;
11348;SDS011;5729;43.570;27.826;2022-08-01T10:00:03;3.08;;;1.63;;
11348;SDS011;5729;43.570;27.826;2022-08-01T10:02:33;5.05;;;1.60;;
11348;SDS011;5729;43.570;27.826;2022-08-01T10:05:06;2.55;;;1.63;;
11348;SDS011;5729;43.570;27.826;2022-08-01T10:07:33;3.38;;;1.55;;
11348;SDS011;5729;43.570;27.826;2022-08-01T10:10:12;7.05;;;1.80;;
11348;SDS011;5729;43.570;27.826;2022-08-01T10:12:40;1.63;;;1.40;;
11348;SDS011;5729;43.570;27.826;2022-08-01T10:15:07;4.22;;;1.80;;
11348;SDS011;5729;43.570;27.826;2022-08-01T10:17:33;3.33;;;1.20;;
11348;SDS011;5729;43.570;27.826;2022-08-01T10:20:03;4.13;;;1.48;;
11348;SDS011;5729;43.570;27.826;2022-08-01T10:22:30;2.00;;;1.50;;
11348;SDS011;5729;43.570;27.826;2022-08-01T10:24:56;2.00;;;1.40;;
11348;SDS011;5729;43.570;27.826;2022-08-01T10:27:26;6.60;;;1.85;;
11348;SDS011;5729;43.570;27.826;2022-08-01T10:29:56;2.22;;;1.30;;
11348;SDS011;5729;43.570;27.826;2022-08-01T10:32:28;2.97;;;1.60;;
11348;SDS011;5729;43.570;27.826;2022-08-01T10:34:58;4.60;;;2.05;;
11348;SDS011;5729;43.570;27.826;2022-08-01T10:37:26;3.67;;;1.80;;
11348;SDS011;5729;43.570;27.826;2022-08-01T10:39:55;3.75;;;1.83;;
11348;SDS011;5729;43.570;27.826;2022-08-01T10:42:22;4.85;;;1.40;;
11348;SDS011;5729;43.570;27.826;2022-08-01T10:44:48;3.63;;;1.83;;
11348;SDS011;5729;43.570;27.826;2022-08-01T10:47:18;1.63;;;1.52;;
11348;SDS011;5729;43.570;27.826;2022-08-01T10:49:55;2.50;;;1.58;;
11348;SDS011;5729;43.570;27.826;2022-08-01T10:52:27;8.02;;;1.67;;
11348;SDS011;5729;43.570;27.826;2022-08-01T10:55:05;3.72;;;1.80;;
11348;SDS011;5729;43.570;27.826;2022-08-01T10:57:47;2.00;;;1.70;;
11348;SDS011;5729;43.570;27.826;2022-08-01T11:00:19;4.90;;;1.80;;
11348;SDS011;5729;43.570;27.826;2022-08-01T11:03:01;3.33;;;1.75;;
11348;SDS011;5729;43.570;27.826;2022-08-01T11:05:32;3.58;;;1.60;;
11348;SDS011;5729;43.570;27.826;2022-08-01T11:08:03;6.93;;;1.77;;
11348;SDS011;5729;43.570;27.826;2022-08-01T11:10:38;5.50;;;1.50;;
11348;SDS011;5729;43.570;27.826;2022-08-01T11:13:08;6.55;;;1.50;;
11348;SDS011;5729;43.570;27.826;2022-08-01T11:15:34;3.95;;;1.70;;
11348;SDS011;5729;43.570;27.826;2022-08-01T11:18:04;1.67;;;1.58;;
11348;SDS011;5729;43.570;27.826;2022-08-01T11:20:55;2.17;;;1.85;;
11348;SDS011;5729;43.570;27.826;2022-08-01T11:23:22;2.63;;;1.77;;
11348;SDS011;5729;43.570;27.826;2022-08-01T11:30:52;12.70;;;1.98;;
11348;SDS011;5729;43.570;27.826;2022-08-01T11:38:41;5.72;;;2.20;;
11348;SDS011;5729;43.570;27.826;2022-08-01T11:49:24;2.53;;;2.25;;
11348;SDS011;5729;43.570;27.826;2022-08-01T11:54:55;2.30;;;2.10;;
11348;SDS011;5729;43.570;27.826;2022-08-01T11:57:27;2.65;;;2.03;;
11348;SDS011;5729;43.570;27.826;2022-08-01T11:59:56;2.50;;;2.20;;
11348;SDS011;5729;43.570;27.826;2022-08-01T12:02:24;8.57;;;2.50;;
11348;SDS011;5729;43.570;27.826;2022-08-01T12:04:59;3.45;;;2.47;;
11348;SDS011;5729;43.570;27.826;2022-08-01T12:07:30;2.90;;;2.50;;
11348;SDS011;5729;43.570;27.826;2022-08-01T12:09:59;3.95;;;2.50;;
11348;SDS011;5729;43.570;27.826;2022-08-01T12:12:31;3.60;;;2.47;;
11348;SDS011;5729;43.570;27.826;2022-08-01T12:14:58;3.45;;;2.42;;
11348;SDS011;5729;43.570;27.826;2022-08-01T12:17:33;3.05;;;2.70;;
11348;SDS011;5729;43.570;27.826;2022-08-01T12:20:01;3.47;;;2.50;;
11348;SDS011;5729;43.570;27.826;2022-08-01T12:22:28;3.60;;;2.50;;
11348;SDS011;5729;43.570;27.826;2022-08-01T12:24:53;5.50;;;2.70;;
11348;SDS011;5729;43.570;27.826;2022-08-01T12:27:26;2.65;;;2.30;;
11348;SDS011;5729;43.570;27.826;2022-08-01T12:29:54;2.38;;;2.17;;
11348;SDS011;5729;43.570;27.826;2022-08-01T12:32:30;3.53;;;2.42;;
11348;SDS011;5729;43.570;27.826;2022-08-01T12:35:01;2.85;;;2.35;;
11348;SDS011;5729;43.570;27.826;2022-08-01T12:37:28;2.53;;;2.00;;
11348;SDS011;5729;43.570;27.826;2022-08-01T12:39:54;2.90;;;2.05;;
11348;SDS011;5729;43.570;27.826;2022-08-01T12:42:21;2.47;;;2.28;;
11348;SDS011;5729;43.570;27.826;2022-08-01T12:44:48;3.85;;;2.25;;
11348;SDS011;5729;43.570;27.826;2022-08-01T12:47:16;2.28;;;2.08;;
11348;SDS011;5729;43.570;27.826;2022-08-01T12:49:43;2.67;;;2.38;;
11348;SDS011;5729;43.570;27.826;2022-08-01T12:52:10;2.15;;;1.95;;
11348;SDS011;5729;43.570;27.826;2022-08-01T12:57:27;2.40;;;2.20;;
11348;SDS011;5729;43.570;27.826;2022-08-01T12:59:53;6.82;;;2.25;;
11348;SDS011;5729;43.570;27.826;2022-08-01T13:02:18;2.13;;;2.03;;
11348;SDS011;5729;43.570;27.826;2022-08-01T13:04:50;4.10;;;2.70;;
11348;SDS011;5729;43.570;27.826;2022-08-01T13:07:16;3.42;;;2.40;;
11348;SDS011;5729;43.570;27.826;2022-08-01T13:09:49;2.58;;;2.30;;
11348;SDS011;5729;43.570;27.826;2022-08-01T13:12:17;3.50;;;2.42;;
11348;SDS011;5729;43.570;27.826;2022-08-01T13:14:43;9.90;;;2.28;;
11348;SDS011;5729;43.570;27.826;2022-08-01T13:17:08;5.03;;;2.65;;
11348;SDS011;5729;43.570;27.826;2022-08-01T13:19:46;2.90;;;2.28;;
11348;SDS011;5729;43.570;27.826;2022-08-01T13:22:13;3.50;;;2.63;;
11348;SDS011;5729;43.570;27.826;2022-08-01T13:24:38;7.45;;;2.83;;
11348;SDS011;5729;43.570;27.826;2022-08-01T13:27:04;3.83;;;3.53;;
11348;SDS011;5729;43.570;27.826;2022-08-01T13:29:31;3.60;;;3.30;;
11348;SDS011;5729;43.570;27.826;2022-08-01T13:31:59;3.53;;;3.22;;
11348;SDS011;5729;43.570;27.826;2022-08-01T13:34:32;4.00;;;3.30;;
11348;SDS011;5729;43.570;27.826;2022-08-01T13:36:59;4.40;;;3.42;;
11348;SDS011;5729;43.570;27.826;2022-08-01T13:39:26;13.43;;;4.43;;
11348;SDS011;5729;43.570;27.826;2022-08-01T13:42:05;5.10;;;3.42;;
11348;SDS011;5729;43.570;27.826;2022-08-01T13:44:31;4.72;;;2.88;;
11348;SDS011;5729;43.570;27.826;2022-08-01T13:46:56;4.05;;;3.65;;
11348;SDS011;5729;43.570;27.826;2022-08-01T13:49:22;3.53;;;3.20;;
11348;SDS011;5729;43.570;27.826;2022-08-01T13:51:47;4.22;;;3.28;;
11348;SDS011;5729;43.570;27.826;2022-08-01T13:54:15;4.32;;;2.90;;
11348;SDS011;5729;43.570;27.826;2022-08-01T13:56:40;5.50;;;3.17;;
11348;SDS011;5729;43.570;27.826;2022-08-01T13:59:06;3.20;;;3.00;;
11348;SDS011;5729;43.570;27.826;2022-08-01T14:01:33;3.47;;;3.08;;
11348;SDS011;5729;43.570;27.826;2022-08-01T14:03:59;5.95;;;3.30;;
11348;SDS011;5729;43.570;27.826;2022-08-01T14:06:24;3.83;;;3.45;;
11348;SDS011;5729;43.570;27.826;2022-08-01T14:08:50;9.05;;;3.20;;
11348;SDS011;5729;43.570;27.826;2022-08-01T14:11:16;3.63;;;3.20;;
11348;SDS011;5729;43.570;27.826;2022-08-01T14:13:42;3.67;;;2.85;;
11348;SDS011;5729;43.570;27.826;2022-08-01T14:16:08;3.78;;;2.95;;
11348;SDS011;5729;43.570;27.826;2022-08-01T14:18:34;4.10;;;2.80;;
11348;SDS011;5729;43.570;27.826;2022-08-01T14:20:59;4.88;;;3.33;;
11348;SDS011;5729;43.570;27.826;2022-08-01T14:23:25;4.03;;;3.08;;
11348;SDS011;5729;43.570;27.826;2022-08-01T14:25:51;2.92;;;2.72;;
11348;SDS011;5729;43.570;27.826;2022-08-01T14:28:17;5.13;;;2.92;;
11348;SDS011;5729;43.570;27.826;2022-08-01T14:30:43;3.92;;;3.15;;
11348;SDS011;5729;43.570;27.826;2022-08-01T14:33:09;6.20;;;3.20;;
11348;SDS011;5729;43.570;27.826;2022-08-01T14:35:35;3.22;;;3.03;;
11348;SDS011;5729;43.570;27.826;2022-08-01T14:38:01;4.95;;;3.15;;
11348;SDS011;5729;43.570;27.826;2022-08-01T14:40:27;5.50;;;3.25;;
11348;SDS011;5729;43.570;27.826;2022-08-01T14:42:52;3.95;;;3.55;;
11348;SDS011;5729;43.570;27.826;2022-08-01T14:45:18;3.88;;;2.92;;
11348;SDS011;5729;43.570;27.826;2022-08-01T14:47:43;3.25;;;3.00;;
11348;SDS011;5729;43.570;27.826;2022-08-01T14:50:10;4.50;;;3.25;;
11348;SDS011;5729;43.570;27.826;2022-08-01T14:52:37;5.38;;;3.15;;
11348;SDS011;5729;43.570;27.826;2022-08-01T14:55:04;4.45;;;3.17;;
11348;SDS011;5729;43.570;27.826;2022-08-01T14:57:31;3.65;;;3.20;;
11348;SDS011;5729;43.570;27.826;2022-08-01T14:59:56;4.68;;;3.58;;
11348;SDS011;5729;43.570;27.826;2022-08-01T15:02:22;4.65;;;3.70;;
11348;SDS011;5729;43.570;27.826;2022-08-01T15:04:48;8.55;;;3.45;;
11348;SDS011;5729;43.570;27.826;2022-08-01T15:07:14;3.83;;;2.95;;
11348;SDS011;5729;43.570;27.826;2022-08-01T15:09:41;3.72;;;3.33;;
11348;SDS011;5729;43.570;27.826;2022-08-01T15:12:07;7.85;;;3.38;;
11348;SDS011;5729;43.570;27.826;2022-08-01T15:14:32;3.88;;;3.10;;
11348;SDS011;5729;43.570;27.826;2022-08-01T15:17:20;5.70;;;2.63;;
11348;SDS011;5729;43.570;27.826;2022-08-01T15:19:48;6.90;;;2.70;;
11348;SDS011;5729;43.570;27.826;2022-08-01T15:22:16;3.45;;;2.50;;
11348;SDS011;5729;43.570;27.826;2022-08-01T15:24:42;3.30;;;2.30;;
11348;SDS011;5729;43.570;27.826;2022-08-01T15:27:08;4.15;;;2.13;;
11348;SDS011;5729;43.570;27.826;2022-08-01T15:29:34;8.27;;;2.22;;
11348;SDS011;5729;43.570;27.826;2022-08-01T15:32:00;4.28;;;2.08;;
11348;SDS011;5729;43.570;27.826;2022-08-01T15:34:28;3.72;;;2.00;;
11348;SDS011;5729;43.570;27.826;2022-08-01T15:36:54;2.13;;;2.00;;